Latest Weather Observations for Grove

IDT60801

Issued at 11:31 pm EST Wednesday 27 May 2015 (issued every 30 minutes, with the page automatically refreshed every 10 minutes)

About weather observations | Map of weather stations | Latest weather observations for TAS | Other Formats
Station Details ID: 094220 Name: GROVE (RESEARCH STATION) Lat: -42.99 Lon: 147.07 Height: 65.0 m
Data from the previous 72 hours. | See also: Recent months at Grove
Date/Time
EST
Temp
°C
App
Temp
°C
Dew
Point
Rel
Hum
%
Delta-T
°C
Wind Press
QNH
hPa
Press
MSL
hPa
Rain
since 9 am
mm
Dir
 
Spd
km/h
Gust
km/h
Spd
kts
Gust
kts
27/11:30pm 12.5 11.0 8.5 76 2.0 S 6 9 3 5 - - 0.0
27/11:00pm 13.6 11.1 8.2 70 2.7 WSW 11 15 6 8 - - 0.0
27/10:30pm 14.6 11.8 7.1 60 3.7 N 11 19 6 10 - - 0.0
27/10:00pm 15.1 11.5 6.7 57 4.1 N 15 26 8 14 - - 0.0
27/09:30pm 15.2 10.7 6.1 54 4.4 N 19 37 10 20 - - 0.0
27/09:00pm 14.5 9.0 5.9 56 4.1 N 24 41 13 22 - - 0.0
27/08:30pm 14.3 11.0 6.2 58 3.9 N 13 22 7 12 - - 0.0
27/08:00pm 14.2 10.6 6.6 60 3.7 N 15 26 8 14 - - 0.0
27/07:30pm 13.9 11.8 6.7 62 3.5 NNE 7 20 4 11 - - 0.0
27/07:00pm 14.6 11.0 6.6 58 3.9 N 15 28 8 15 - - 0.0
27/06:30pm 14.3 11.2 7.2 62 3.5 N 13 20 7 11 - - 0.0
27/06:00pm 14.7 11.9 6.9 59 3.8 N 11 20 6 11 - - 0.0
27/05:30pm 15.0 11.5 7.1 59 3.9 N 15 26 8 14 - - 0.0
27/05:00pm 14.9 11.8 7.2 60 3.8 N 13 24 7 13 - - 0.0
27/04:30pm 15.0 11.9 7.1 59 3.9 N 13 24 7 13 - - 0.0
27/04:00pm 14.6 11.9 7.5 62 3.5 N 11 15 6 8 - - 0.0
27/03:30pm 15.6 11.7 6.9 56 4.3 N 17 26 9 14 - - 0.0
27/03:00pm 15.1 10.2 7.0 58 4.0 NNW 22 33 12 18 - - 0.0
27/02:30pm 16.4 13.7 7.2 54 4.6 N 11 20 6 11 - - 0.0
27/02:00pm 16.7 13.6 7.1 53 4.8 N 13 19 7 10 - - 0.0
27/01:30pm 16.1 12.4 6.5 53 4.7 N 15 28 8 15 - - 0.0
27/01:00pm 14.7 11.5 6.9 59 3.8 N 13 28 7 15 - - 0.0
27/12:30pm 14.9 10.8 6.2 56 4.2 NNW 17 32 9 17 - - 0.0
27/12:00pm 15.0 10.8 5.8 54 4.4 NNW 17 28 9 15 - - 0.0
27/11:30am 14.4 12.2 6.3 58 3.9 NNW 7 15 4 8 - - 0.0
27/11:00am 13.4 11.3 6.8 64 3.2 S 7 11 4 6 - - 0.0
27/10:30am 10.8 8.5 7.3 79 1.7 SSW 9 15 5 8 - - 0.0
27/10:00am 8.7 7.0 7.6 93 0.5 SSE 6 11 3 6 - - 0.0
27/09:30am 6.2 4.6 6.2 100 0.0 WSW 4 9 2 5 - - 0.0
27/09:00am 4.7 2.4 4.7 100 0.0 W 6 11 3 6 - - 0.0
27/08:30am 4.3 1.9 4.3 100 0.0 NNW 6 15 3 8 - - 0.0
27/08:00am 4.0 1.9 4.0 100 0.0 WNW 4 7 2 4 - - 0.0
27/07:30am 4.0 2.3 4.0 100 0.0 NE 2 7 1 4 - - 0.0
27/07:00am 4.1 2.0 4.1 100 0.0 ESE 4 9 2 5 - - 0.0
27/06:30am 4.2 2.9 4.2 100 0.0 CALM 0 0 0 0 - - 0.0
27/06:00am 4.3 3.0 4.3 100 0.0 CALM 0 7 0 4 - - 0.0
27/05:30am 4.3 3.0 4.3 100 0.0 CALM 0 0 0 0 - - 0.0
27/05:00am 4.4 3.1 4.2 99 0.1 CALM 0 0 0 0 - - 0.0
27/04:30am 4.2 2.9 4.2 100 0.0 CALM 0 0 0 0 - - 0.0
27/04:00am 4.1 2.4 4.1 100 0.0 SW 2 7 1 4 - - 0.0
27/03:30am 4.1 1.7 4.1 100 0.0 SW 6 7 3 4 - - 0.0
27/03:00am 3.8 2.4 3.8 100 0.0 CALM 0 0 0 0 - - 0.0
27/02:30am 3.6 1.0 3.4 99 0.1 ENE 6 9 3 5 - - 0.0
27/02:00am 3.2 1.7 3.2 100 0.0 CALM 0 0 0 0 - - 0.0
27/01:30am 3.0 1.5 2.8 99 0.1 CALM 0 0 0 0 - - 0.0
27/01:00am 2.3 -0.1 2.3 100 0.0 NE 4 7 2 4 - - 0.0
27/12:30am 1.9 -0.9 1.9 100 0.0 ENE 6 7 3 4 - - 0.0
27/12:00am 1.9 0.2 1.9 100 0.0 CALM 0 6 0 3 - - 0.0
 
Date/Time
EST
Temp
°C
App
Temp
°C
Dew
Point
Rel
Hum
%
Delta-T
°C
Wind Press
QNH
hPa
Press
MSL
hPa
Rain
since 9 am
mm
Dir
 
Spd
km/h
Gust
km/h
Spd
kts
Gust
kts
26/11:30pm 2.2 -0.2 2.2 100 0.0 NE 4 6 2 3 - - 0.0
26/11:00pm 2.4 0.7 2.1 98 0.1 CALM 0 0 0 0 - - 0.0
26/10:30pm 2.6 -0.1 2.6 100 0.0 NNE 6 7 3 4 - - 0.0
26/10:00pm 3.2 0.6 3.0 99 0.1 ENE 6 7 3 4 - - 0.0
26/09:30pm 3.5 0.7 3.3 99 0.1 NNE 7 9 4 5 - - 0.0
26/09:00pm 4.5 3.2 4.0 97 0.2 CALM 0 0 0 0 - - 0.0
26/08:30pm 4.8 3.2 4.3 97 0.2 NE 2 6 1 3 - - 0.0
26/08:00pm 5.4 3.6 5.2 99 0.1 NE 4 7 2 4 - - 0.0
26/07:30pm 6.2 4.0 5.5 95 0.3 ENE 6 7 3 4 - - 0.0
26/07:00pm 7.6 6.5 6.7 94 0.4 NE 2 7 1 4 - - 0.0
26/06:30pm 8.7 7.7 7.2 90 0.7 NNW 2 7 1 4 - - 0.0
26/06:00pm 10.1 8.2 7.4 83 1.3 ENE 7 11 4 6 - - 0.0
26/05:30pm 11.0 9.1 7.7 80 1.6 NE 7 13 4 7 - - 0.0
26/05:00pm 11.8 10.0 7.9 77 1.9 E 7 11 4 6 - - 0.0
26/04:30pm 12.7 12.6 9.4 80 1.7 CALM 0 2 0 1 - - 0.0
26/04:00pm 13.3 13.3 9.8 79 1.8 CALM 0 0 0 0 - - 0.0
26/03:30pm 13.9 12.5 7.4 65 3.2 SSW 4 7 2 4 - - 0.0
26/03:00pm 14.2 12.2 7.0 62 3.5 SSW 7 9 4 5 - - 0.0
26/02:30pm 14.4 12.4 7.3 62 3.5 SSW 7 13 4 7 - - 0.0
26/02:00pm 15.3 13.0 7.5 59 3.9 SW 9 13 5 7 - - 0.0
26/01:30pm 14.5 12.5 7.2 61 3.6 SSW 7 11 4 6 - - 0.0
26/01:00pm 15.1 12.8 7.4 60 3.8 N 9 13 5 7 - - 0.0
26/12:30pm 14.7 12.7 6.9 59 3.8 SW 7 11 4 6 - - 0.0
26/12:00pm 14.3 12.3 6.9 61 3.6 SW 7 9 4 5 - - 0.0
26/11:30am 14.3 12.4 7.6 64 3.3 SSW 7 11 4 6 - - 0.0
26/11:00am 14.1 13.3 8.3 68 2.9 WNW 2 6 1 3 - - 0.0
26/10:30am 13.1 12.6 7.8 70 2.6 CALM 0 7 0 4 - - 0.0
26/10:00am 12.7 12.2 7.8 72 2.4 CALM 0 0 0 0 - - 0.0
26/09:30am 11.6 11.2 8.1 79 1.7 CALM 0 0 0 0 - - 0.0
26/09:00am 9.5 9.1 8.3 92 0.6 CALM 0 4 0 2 - - 0.0
26/08:30am 8.1 7.5 7.5 96 0.3 CALM 0 0 0 0 - - 0.0
26/08:00am 7.8 7.2 7.2 96 0.3 CALM 0 0 0 0 - - 0.0
26/07:30am 7.7 5.9 7.1 96 0.3 NE 6 7 3 4 - - 0.0
26/07:00am 7.3 5.2 6.6 95 0.3 NNE 7 9 4 5 - - 0.0
26/06:30am 7.8 7.1 6.9 94 0.4 CALM 0 0 0 0 - - 0.0
26/06:00am 7.5 5.6 6.9 96 0.3 W 6 7 3 4 - - 0.0
26/05:30am 7.5 5.4 6.6 94 0.4 ENE 7 9 4 5 - - 0.0
26/05:00am 7.5 6.0 6.6 94 0.4 NE 4 9 2 5 - - 0.0
26/04:30am 8.2 6.3 6.9 91 0.6 NE 6 7 3 4 - - 0.0
26/04:00am 7.6 5.7 6.7 94 0.4 NNW 6 7 3 4 - - 0.0
26/03:30am 7.5 5.4 6.6 94 0.4 ENE 7 9 4 5 - - 0.0
26/03:00am 7.7 5.6 6.6 93 0.5 NNE 7 11 4 6 - - 0.0
26/02:30am 8.0 6.0 6.9 93 0.5 NE 7 9 4 5 - - 0.0
26/02:00am 7.9 7.2 7.0 94 0.4 CALM 0 6 0 3 - - 0.0
26/01:30am 7.6 5.5 6.5 93 0.5 ENE 7 11 4 6 - - 0.0
26/01:00am 8.2 7.1 6.9 91 0.6 N 2 7 1 4 - - 0.0
26/12:30am 8.7 7.5 6.5 86 1.0 E 2 11 1 6 - - 0.0
26/12:00am 8.8 7.7 7.1 89 0.8 W 2 6 1 3 - - 0.0
 
Date/Time
EST
Temp
°C
App
Temp
°C
Dew
Point
Rel
Hum
%
Delta-T
°C
Wind Press
QNH
hPa
Press
MSL
hPa
Rain
since 9 am
mm
Dir
 
Spd
km/h
Gust
km/h
Spd
kts
Gust
kts
25/11:30pm 9.0 8.3 6.9 87 1.0 CALM 0 6 0 3 - - 0.0
25/11:00pm 9.1 7.2 6.7 85 1.1 SW 6 9 3 5 - - 0.0
25/10:30pm 9.2 7.3 6.9 85 1.1 N 6 13 3 7 - - 0.0
25/10:00pm 8.7 6.9 7.0 89 0.8 ENE 6 11 3 6 - - 0.0
25/09:30pm 8.6 8.0 7.3 91 0.6 CALM 0 7 0 4 - - 0.0
25/09:00pm 8.5 7.1 7.2 91 0.6 WSW 4 9 2 5 - - 0.0
25/08:30pm 8.5 7.0 6.8 89 0.8 SSW 4 13 2 7 - - 0.0
25/08:00pm 8.1 5.7 6.8 91 0.6 NNE 9 13 5 7 - - 0.0
25/07:30pm 8.3 6.3 7.0 91 0.6 NE 7 11 4 6 - - 0.0
25/07:00pm 7.8 5.8 7.2 96 0.3 NNE 7 9 4 5 - - 0.0
25/06:30pm 8.7 7.0 7.4 91 0.6 SSE 6 9 3 5 - - 0.0
25/06:00pm 8.3 6.3 7.2 93 0.5 NNE 7 7 4 4 - - 0.0
25/05:30pm 9.0 7.1 7.5 90 0.7 NNW 7 11 4 6 - - 0.0
25/05:00pm 9.2 8.6 7.5 89 0.8 CALM 0 4 0 2 - - 0.0
25/04:30pm 10.3 8.0 7.6 83 1.3 NW 9 13 5 7 - - 0.0
25/04:00pm 11.9 11.3 7.6 75 2.1 CALM 0 0 0 0 - - 0.0
25/03:30pm 13.1 12.4 7.1 67 2.9 CALM 0 0 0 0 - - 0.0
25/03:00pm 12.2 11.6 7.2 71 2.4 CALM 0 0 0 0 - - 0.0
25/02:30pm 11.6 11.0 7.2 74 2.1 CALM 0 0 0 0 - - 0.0
25/02:00pm 11.8 11.1 7.0 72 2.3 CALM 0 0 0 0 - - 0.0
25/01:30pm 11.4 10.7 6.8 73 2.2 CALM 0 0 0 0 - - 0.0
25/01:00pm 11.2 10.4 6.6 73 2.2 CALM 0 0 0 0 - - 0.0
25/12:30pm 10.8 9.9 6.1 73 2.2 CALM 0 0 0 0 - - 0.0
25/12:00pm 10.8 10.0 6.3 74 2.1 CALM 0 7 0 4 - - 0.0
25/11:30am 10.5 8.8 6.0 74 2.1 W 4 6 2 3 - - 0.0
25/11:00am 9.4 7.2 5.4 76 1.8 W 6 7 3 4 - - 0.0
25/10:30am 7.6 5.0 6.1 90 0.7 W 9 11 5 6 - - 0.0
25/10:00am 6.4 4.3 5.7 95 0.3 SSE 6 9 3 5 - - 0.0
25/09:30am 5.5 4.4 5.0 97 0.2 CALM 0 0 0 0 - - 0.0
25/09:00am 4.6 3.0 4.4 99 0.1 SW 2 6 1 3 - - 0.2
25/08:30am 4.3 2.6 4.1 99 0.1 NE 2 6 1 3 - - 0.2
25/08:00am 3.5 0.9 3.3 99 0.1 NE 6 7 3 4 - - 0.2
25/07:30am 3.0 0.4 3.0 100 0.0 NE 6 7 3 4 - - 0.2
25/07:00am 2.9 1.3 2.6 98 0.1 CALM 0 9 0 5 - - 0.2
25/06:30am 2.4 0.8 2.4 100 0.0 CALM 0 0 0 0 - - 0.2
25/06:00am 2.5 0.9 2.5 100 0.0 CALM 0 0 0 0 - - 0.2
25/05:30am 2.6 -0.2 2.3 98 0.1 NE 6 9 3 5 - - 0.2
25/05:00am 2.4 0.8 2.4 100 0.0 CALM 0 0 0 0 - - 0.2
25/04:30am 2.8 0.8 2.5 98 0.1 ENE 2 6 1 3 - - 0.2
25/04:00am 2.7 1.1 2.7 100 0.0 CALM 0 0 0 0 - - 0.2
25/03:30am 3.2 1.7 3.2 100 0.0 CALM 0 0 0 0 - - 0.2
25/03:00am 3.4 1.9 3.2 99 0.1 CALM 0 0 0 0 - - 0.2
25/02:30am 3.1 1.6 3.1 100 0.0 CALM 0 0 0 0 - - 0.2
25/02:00am 3.1 1.6 2.9 99 0.1 CALM 0 0 0 0 - - 0.2
25/01:30am 3.3 1.1 3.1 99 0.1 NNE 4 7 2 4 - - 0.2
25/01:00am 2.8 0.5 2.5 98 0.1 NW 4 7 2 4 - - 0.2
25/12:30am 2.1 -0.7 2.1 100 0.0 N 6 7 3 4 - - 0.2
25/12:00am 1.9 -1.2 1.6 98 0.1 NNE 7 9 4 5 - - 0.2

Other Formats:

Comma delimited format used in spreadsheet applications
http://www.bom.gov.au/fwo/IDT60801/IDT60801.95977.axf

JavaScript Object Notation format (JSON) in row-major order
http://www.bom.gov.au/fwo/IDT60801/IDT60801.95977.json